EXP763 RPLL-RPVE
Flight info
| Callsign | EXP763 |
|---|---|
| Flight time | N/A |
| Altitude | 27000 |
| Route | VERDE2R VERDE W24 TAPER TAPER7A |
| Aircraft | A20N/M-SDE2E3FGHIRWXY/LB1 |
Departure
| Time | 2026-05-01 07:27 |
|---|---|
| Airport | Ninoy Aquino International Airport (RPLL) |
Arrival
| Time | N/A |
|---|---|
| Airport | Godofredo P. Ramos Airport (RPVE) |
| Time | Latitude | Longitude | Altitude | Speed | Heading |
|---|---|---|---|---|---|
| 2026-05-01 07:23 | 14.50573 | 121.01131 | 84 ft | 11 kts | 200° |
| 2026-05-01 07:23 | 14.50471 | 121.00964 | 84 ft | 16 kts | 243° |
| 2026-05-01 07:24 | 14.50410 | 121.00851 | 84 ft | 18 kts | 239° |
| 2026-05-01 07:24 | 14.50346 | 121.00738 | 84 ft | 18 kts | 240° |
| 2026-05-01 07:24 | 14.50283 | 121.00627 | 84 ft | 18 kts | 240° |
| 2026-05-01 07:24 | 14.50221 | 121.00514 | 84 ft | 17 kts | 240° |
| 2026-05-01 07:25 | 14.50161 | 121.00405 | 84 ft | 17 kts | 239° |
| 2026-05-01 07:25 | 14.50136 | 121.00360 | 84 ft | 17 kts | 240° |
| 2026-05-01 07:25 | 14.50075 | 121.00251 | 84 ft | 17 kts | 240° |
| 2026-05-01 07:25 | 14.50014 | 121.00141 | 84 ft | 17 kts | 240° |
| 2026-05-01 07:26 | 14.49955 | 121.00033 | 84 ft | 17 kts | 240° |
| 2026-05-01 07:26 | 14.49882 | 120.99967 | 84 ft | 12 kts | 172° |
| 2026-05-01 07:26 | 14.49815 | 121.00003 | 84 ft | 9 kts | 135° |
| 2026-05-01 07:26 | 14.49814 | 121.00066 | 84 ft | 10 kts | 62° |
| 2026-05-01 07:27 | 14.49872 | 121.00172 | 84 ft | 39 kts | 60° |
| 2026-05-01 07:27 | 14.50138 | 121.00655 | 84 ft | 113 kts | 62° |
| 2026-05-01 07:27 | 14.50589 | 121.01470 | 194 ft | 154 kts | 64° |
| 2026-05-01 07:27 | 14.51104 | 121.02431 | 787 ft | 156 kts | 66° |
| 2026-05-01 07:28 | 14.51623 | 121.03420 | 1392 ft | 161 kts | 65° |
| 2026-05-01 07:28 | 14.52180 | 121.04425 | 1979 ft | 163 kts | 64° |
| 2026-05-01 07:28 | 14.52741 | 121.05415 | 2264 ft | 176 kts | 64° |
| 2026-05-01 07:28 | 14.53387 | 121.06563 | 2549 ft | 193 kts | 63° |
| 2026-05-01 07:29 | 14.54071 | 121.07822 | 2855 ft | 208 kts | 69° |
| 2026-05-01 07:29 | 14.54249 | 121.09298 | 3090 ft | 219 kts | 110° |
| 2026-05-01 07:29 | 14.53372 | 121.10586 | 3401 ft | 229 kts | 150° |
| 2026-05-01 07:29 | 14.51804 | 121.11007 | 3751 ft | 243 kts | 185° |
| 2026-05-01 07:30 | 14.50081 | 121.10745 | 4182 ft | 258 kts | 190° |
| 2026-05-01 07:30 | 14.48301 | 121.10410 | 4818 ft | 265 kts | 189° |
| 2026-05-01 07:30 | 14.46477 | 121.10138 | 5572 ft | 267 kts | 189° |
| 2026-05-01 07:30 | 14.44661 | 121.09911 | 6302 ft | 270 kts | 187° |
| 2026-05-01 07:31 | 14.42776 | 121.09724 | 7026 ft | 274 kts | 187° |
| 2026-05-01 07:31 | 14.36972 | 121.09239 | 9143 ft | 287 kts | 187° |
| 2026-05-01 07:32 | 14.32909 | 121.08937 | 10334 ft | 301 kts | 187° |
| 2026-05-01 07:32 | 14.30759 | 121.08779 | 10663 ft | 318 kts | 186° |
| 2026-05-01 07:33 | 14.26112 | 121.08444 | 11248 ft | 351 kts | 186° |
| 2026-05-01 07:33 | 14.23650 | 121.08270 | 11620 ft | 363 kts | 186° |
| 2026-05-01 07:33 | 14.18579 | 121.07915 | 12838 ft | 371 kts | 186° |
| 2026-05-01 07:34 | 14.16002 | 121.07735 | 13432 ft | 376 kts | 186° |
| 2026-05-01 07:34 | 14.10736 | 121.07366 | 14627 ft | 383 kts | 185° |
| 2026-05-01 07:34 | 14.08104 | 121.07182 | 15208 ft | 387 kts | 185° |
| 2026-05-01 07:35 | 14.05409 | 121.06993 | 15790 ft | 391 kts | 185° |
| 2026-05-01 07:35 | 14.02669 | 121.06802 | 16369 ft | 394 kts | 185° |
| 2026-05-01 07:35 | 13.99974 | 121.06614 | 16929 ft | 398 kts | 185° |
| 2026-05-01 07:35 | 13.97179 | 121.06419 | 17499 ft | 401 kts | 185° |
| 2026-05-01 07:36 | 13.94391 | 121.06224 | 18053 ft | 404 kts | 184° |
| 2026-05-01 07:36 | 13.91602 | 121.06029 | 18595 ft | 407 kts | 184° |
| 2026-05-01 07:36 | 13.88775 | 121.05833 | 19135 ft | 410 kts | 184° |
| 2026-05-01 07:36 | 13.85911 | 121.05634 | 19670 ft | 413 kts | 184° |
| 2026-05-01 07:37 | 13.80160 | 121.05235 | 20736 ft | 419 kts | 184° |
| 2026-05-01 07:37 | 13.77232 | 121.05032 | 21268 ft | 422 kts | 184° |
| 2026-05-01 07:37 | 13.74311 | 121.04829 | 21797 ft | 425 kts | 184° |
| 2026-05-01 07:38 | 13.71347 | 121.04623 | 22327 ft | 428 kts | 184° |
| 2026-05-01 07:38 | 13.68382 | 121.04418 | 22846 ft | 431 kts | 184° |
| 2026-05-01 07:38 | 13.62397 | 121.04005 | 23879 ft | 436 kts | 183° |
| 2026-05-01 07:39 | 13.59374 | 121.03796 | 24377 ft | 439 kts | 183° |
| 2026-05-01 07:39 | 13.56325 | 121.03584 | 24861 ft | 441 kts | 183° |
| 2026-05-01 07:39 | 13.50269 | 121.03982 | 25747 ft | 444 kts | 162° |
| 2026-05-01 07:40 | 13.47420 | 121.05204 | 26200 ft | 444 kts | 149° |
| 2026-05-01 07:40 | 13.44829 | 121.06924 | 26654 ft | 445 kts | 144° |
| 2026-05-01 07:40 | 13.42298 | 121.08752 | 26861 ft | 446 kts | 143° |
| 2026-05-01 07:40 | 13.39782 | 121.10579 | 26867 ft | 444 kts | 146° |
| 2026-05-01 07:41 | 13.37270 | 121.12389 | 26874 ft | 438 kts | 146° |
| 2026-05-01 07:41 | 13.34796 | 121.14130 | 26875 ft | 437 kts | 146° |
| 2026-05-01 07:41 | 13.29776 | 121.17633 | 26876 ft | 437 kts | 147° |
| 2026-05-01 07:42 | 13.27290 | 121.19369 | 26876 ft | 437 kts | 147° |
| 2026-05-01 07:42 | 13.24769 | 121.21131 | 26876 ft | 438 kts | 147° |
| 2026-05-01 07:42 | 13.22239 | 121.22901 | 26876 ft | 438 kts | 147° |
| 2026-05-01 07:42 | 13.19760 | 121.24636 | 26876 ft | 438 kts | 147° |
| 2026-05-01 07:43 | 13.17239 | 121.26402 | 26876 ft | 438 kts | 147° |
| 2026-05-01 07:43 | 13.14754 | 121.28142 | 26876 ft | 438 kts | 147° |
| 2026-05-01 07:43 | 13.09731 | 121.31660 | 26876 ft | 438 kts | 147° |
| 2026-05-01 07:44 | 13.04729 | 121.35158 | 26358 ft | 437 kts | 147° |
| 2026-05-01 07:44 | 12.99659 | 121.38703 | 24418 ft | 447 kts | 147° |
| 2026-05-01 07:45 | 12.97120 | 121.40479 | 23748 ft | 444 kts | 147° |
| 2026-05-01 07:45 | 12.94595 | 121.42244 | 23132 ft | 440 kts | 147° |
| 2026-05-01 07:45 | 12.92081 | 121.44004 | 22475 ft | 437 kts | 147° |
| 2026-05-01 07:45 | 12.89682 | 121.45682 | 21882 ft | 433 kts | 147° |
| 2026-05-01 07:46 | 12.88215 | 121.46706 | 21549 ft | 430 kts | 147° |